Time;durP1;ratioP1;P1;durP2;ratioP2;P2;SDS_P1;SDS_P2;PMS_P1;PMS_P2;Temp;Humidity;BMP_temperature;BMP_pressure;BME280_temperature;BME280_humidity;BME280_pressure;Samples;Min_cycle;Max_cycle;Signal;HPM_P1;HPM_P2
2024/01/09 00:01:10;;;;;;;7.13;2.10;;;-0.20;72.10;;;;;;6209029;23;20075;-70
2024/01/09 00:03:37;;;;;;;5.35;1.88;;;-0.20;71.60;;;;;;6209612;23;20044;-70
2024/01/09 00:06:04;;;;;;;6.30;1.93;;;-0.10;71.40;;;;;;6229111;22;20649;-70
2024/01/09 00:08:33;;;;;;;5.30;1.92;;;-0.10;71.10;;;;;;6232487;22;20272;-71
2024/01/09 00:11:00;;;;;;;6.13;1.98;;;-0.10;70.50;;;;;;6209067;23;20071;-70
2024/01/09 00:13:27;;;;;;;6.95;2.10;;;-0.10;70.80;;;;;;6210189;23;20031;-70
2024/01/09 00:15:54;;;;;;;5.78;1.83;;;-0.10;70.50;;;;;;6234679;22;20339;-70
2024/01/09 00:18:21;;;;;;;6.63;2.27;;;-0.10;70.90;;;;;;6234353;22;20025;-71
2024/01/09 00:20:48;;;;;;;5.32;1.35;;;-0.10;70.40;;;;;;6233807;22;21097;-70
2024/01/09 00:23:15;;;;;;;6.05;2.00;;;-0.10;70.40;;;;;;6208238;23;20096;-70
2024/01/09 00:25:43;;;;;;;6.13;2.10;;;-0.10;70.20;;;;;;6209846;23;20501;-70
2024/01/09 00:28:10;;;;;;;5.60;2.00;;;-0.10;71.20;;;;;;6233669;22;20020;-71
2024/01/09 00:30:37;;;;;;;5.70;1.70;;;-0.10;70.90;;;;;;6210401;23;20033;-70
2024/01/09 00:33:05;;;;;;;6.80;1.90;;;-0.10;71.80;;;;;;6233232;22;20249;-70
2024/01/09 00:35:32;;;;;;;7.05;2.22;;;-0.10;71.60;;;;;;6233881;22;20474;-70
2024/01/09 00:37:59;;;;;;;5.80;2.05;;;-0.10;71.00;;;;;;6234334;22;20017;-70
2024/01/09 00:40:26;;;;;;;5.80;1.83;;;-0.10;70.50;;;;;;6230608;22;20087;-70
2024/01/09 00:42:54;;;;;;;6.00;1.80;;;-0.10;71.10;;;;;;6233784;22;20021;-71
2024/01/09 00:45:21;;;;;;;5.95;1.90;;;-0.10;71.80;;;;;;6233823;22;20310;-70
2024/01/09 00:47:48;;;;;;;5.28;1.60;;;0.00;72.00;;;;;;6210182;23;20052;-71
2024/01/09 00:50:15;;;;;;;6.97;1.70;;;0.00;72.80;;;;;;6231900;22;20100;-71
2024/01/09 00:52:42;;;;;;;5.88;1.90;;;0.00;72.50;;;;;;6233359;22;20021;-71
2024/01/09 00:55:10;;;;;;;5.27;1.60;;;0.00;71.80;;;;;;6232951;22;20143;-70
2024/01/09 00:57:37;;;;;;;6.05;1.60;;;0.10;70.80;;;;;;6231682;22;20240;-71
2024/01/09 01:00:08;;;;;;;5.90;1.75;;;0.00;70.70;;;;;;6182444;23;20029;-70
2024/01/09 01:02:35;;;;;;;5.95;1.70;;;0.00;70.20;;;;;;6207263;23;20027;-70
2024/01/09 01:05:02;;;;;;;5.43;1.92;;;0.00;70.10;;;;;;6210183;23;21095;-70
2024/01/09 01:07:29;;;;;;;5.57;1.80;;;0.00;70.20;;;;;;6210179;23;20115;-70
2024/01/09 01:09:56;;;;;;;6.90;2.00;;;0.00;70.40;;;;;;6235768;22;20324;-71
2024/01/09 01:12:23;;;;;;;6.10;1.75;;;0.10;70.30;;;;;;6234778;22;20025;-70
2024/01/09 01:14:50;;;;;;;6.28;1.90;;;0.20;70.30;;;;;;6182445;23;20025;-70
2024/01/09 01:17:18;;;;;;;6.55;1.92;;;0.20;70.00;;;;;;6235614;22;20025;-70
2024/01/09 01:19:46;;;;;;;5.87;1.80;;;0.20;70.30;;;;;;6212256;23;20029;-70
2024/01/09 01:22:13;;;;;;;5.50;1.70;;;0.30;69.90;;;;;;6209433;23;20319;-70
2024/01/09 01:24:40;;;;;;;6.50;1.90;;;0.30;69.30;;;;;;6213220;23;20048;-70
2024/01/09 01:27:07;;;;;;;5.68;1.77;;;0.30;69.20;;;;;;6215160;23;20021;-70
2024/01/09 01:29:34;;;;;;;5.95;1.92;;;0.30;69.00;;;;;;6238649;22;20032;-72
2024/01/09 01:32:01;;;;;;;7.53;1.93;;;0.40;69.10;;;;;;6234912;22;20072;-70
2024/01/09 01:34:29;;;;;;;5.40;1.70;;;0.40;68.50;;;;;;6238148;22;21117;-70
2024/01/09 01:36:57;;;;;;;5.75;1.80;;;0.40;68.60;;;;;;6213266;23;20025;-69
2024/01/09 01:39:24;;;;;;;5.55;1.80;;;0.40;68.80;;;;;;6186911;23;20021;-70
2024/01/09 01:41:51;;;;;;;5.43;1.80;;;0.40;68.70;;;;;;6230814;22;20031;-72
2024/01/09 01:44:19;;;;;;;5.07;1.73;;;0.30;68.70;;;;;;6206821;22;20489;-71
2024/01/09 01:46:47;;;;;;;5.68;1.77;;;0.40;68.50;;;;;;6180944;23;20221;-71
2024/01/09 01:49:16;;;;;;;6.70;2.00;;;0.40;68.20;;;;;;6206077;22;20053;-70
2024/01/09 01:51:47;;;;;;;5.50;1.80;;;0.30;68.90;;;;;;6208286;23;20794;-71
2024/01/09 01:54:15;;;;;;;6.55;1.75;;;0.30;68.70;;;;;;6231163;22;20052;-71
2024/01/09 01:56:42;;;;;;;5.40;1.90;;;0.30;68.30;;;;;;6210495;23;20662;-72
2024/01/09 01:59:10;;;;;;;6.95;2.28;;;0.30;68.50;;;;;;6209777;23;20225;-71
2024/01/09 02:01:39;;;;;;;6.95;2.00;;;0.30;68.30;;;;;;6182574;23;20032;-73
2024/01/09 02:04:08;;;;;;;5.93;2.00;;;0.20;68.60;;;;;;6210474;23;20784;-70
2024/01/09 02:06:35;;;;;;;5.88;2.28;;;0.30;68.60;;;;;;6231108;22;20506;-70
2024/01/09 02:09:04;;;;;;;5.47;1.90;;;0.20;68.20;;;;;;6234291;22;20094;-71
2024/01/09 02:11:31;;;;;;;5.20;1.60;;;0.20;68.00;;;;;;6208241;23;21171;-71
2024/01/09 02:13:58;;;;;;;6.95;1.70;;;0.20;68.30;;;;;;6183705;23;20413;-73
2024/01/09 02:16:25;;;;;;;5.40;2.08;;;0.20;68.40;;;;;;6207772;23;20060;-70
2024/01/09 02:18:52;;;;;;;4.93;1.60;;;0.20;68.60;;;;;;6233693;22;20128;-70
2024/01/09 02:21:19;;;;;;;7.47;1.97;;;0.10;68.10;;;;;;6209720;23;20040;-70
2024/01/09 02:23:48;;;;;;;5.30;1.50;;;0.00;68.30;;;;;;6204821;23;20221;-70
2024/01/09 02:26:21;;;;;;;6.38;2.10;;;0.00;68.10;;;;;;6207823;23;20021;-71
2024/01/09 02:28:51;;;;;;;6.18;2.00;;;0.00;68.00;;;;;;6232837;22;20911;-73
2024/01/09 02:31:20;;;;;;;5.13;1.60;;;0.00;68.70;;;;;;6232233;22;20025;-73
2024/01/09 02:33:47;;;;;;;7.83;1.80;;;0.00;69.80;;;;;;6207084;23;20025;-71
2024/01/09 02:36:14;;;;;;;5.55;2.13;;;0.00;68.70;;;;;;6232612;22;20978;-72
2024/01/09 02:38:43;;;;;;;5.95;1.80;;;0.00;68.90;;;;;;6204835;23;20092;-70
2024/01/09 02:41:10;;;;;;;5.95;2.05;;;0.00;68.50;;;;;;6210330;23;20819;-69
2024/01/09 02:43:37;;;;;;;5.53;1.63;;;-0.10;69.20;;;;;;6211059;23;20021;-71
2024/01/09 02:46:04;;;;;;;6.83;1.80;;;-0.10;68.60;;;;;;6234495;22;20056;-69
2024/01/09 02:48:33;;;;;;;7.10;1.52;;;-0.20;68.20;;;;;;6233445;22;20221;-70
2024/01/09 02:51:00;;;;;;;5.40;1.67;;;-0.20;68.40;;;;;;6233383;22;20525;-70
2024/01/09 02:53:27;;;;;;;6.32;1.70;;;-0.30;68.70;;;;;;6234451;22;20029;-72
2024/01/09 02:55:54;;;;;;;5.80;1.90;;;-0.30;68.60;;;;;;6208660;23;20075;-70
2024/01/09 02:58:21;;;;;;;5.07;1.73;;;-0.40;69.20;;;;;;6234403;22;20052;-70
2024/01/09 03:00:48;;;;;;;5.78;1.90;;;-0.40;68.90;;;;;;6233672;22;20303;-71
2024/01/09 03:03:15;;;;;;;6.22;2.03;;;-0.40;69.20;;;;;;6234142;22;20051;-70
2024/01/09 03:05:44;;;;;;;5.43;1.85;;;-0.40;70.00;;;;;;6233545;22;20049;-70
2024/01/09 03:08:11;;;;;;;6.60;1.98;;;-0.40;69.60;;;;;;6235238;22;20080;-70
2024/01/09 03:10:38;;;;;;;6.07;2.00;;;-0.30;69.80;;;;;;6234367;22;20021;-70
2024/01/09 03:13:05;;;;;;;7.78;2.20;;;-0.30;69.40;;;;;;6231757;22;20275;-70
2024/01/09 03:15:32;;;;;;;5.68;1.52;;;-0.30;69.80;;;;;;6234573;22;20025;-70
2024/01/09 03:18:02;;;;;;;5.88;1.88;;;-0.30;69.50;;;;;;6234543;22;20025;-70
2024/01/09 03:20:29;;;;;;;6.20;2.00;;;-0.40;69.50;;;;;;6232847;22;20028;-71
2024/01/09 03:22:57;;;;;;;5.67;1.60;;;-0.40;69.20;;;;;;6234545;22;20021;-72
2024/01/09 03:25:26;;;;;;;5.88;1.80;;;-0.40;69.60;;;;;;6183823;23;20307;-70
2024/01/09 03:27:55;;;;;;;6.22;1.63;;;-0.40;70.20;;;;;;6211050;23;20136;-72
2024/01/09 03:30:23;;;;;;;4.95;1.63;;;-0.40;69.50;;;;;;6231186;22;20041;-71
2024/01/09 03:32:50;;;;;;;6.93;2.20;;;-0.40;69.60;;;;;;6234421;22;20032;-73
2024/01/09 03:35:17;;;;;;;5.90;1.67;;;-0.40;70.10;;;;;;6234010;22;20029;-74
2024/01/09 03:37:44;;;;;;;6.38;1.70;;;-0.40;70.40;;;;;;6210302;23;20252;-73
2024/01/09 03:40:14;;;;;;;6.07;1.98;;;-0.30;70.50;;;;;;6234147;22;20092;-70
2024/01/09 03:42:41;;;;;;;4.85;1.67;;;-0.30;70.40;;;;;;6210764;22;20101;-72
2024/01/09 03:45:08;;;;;;;5.85;1.60;;;-0.30;69.80;;;;;;6210297;23;20053;-71
2024/01/09 03:47:35;;;;;;;7.27;1.80;;;-0.30;70.50;;;;;;6230620;22;20060;-71
2024/01/09 03:50:03;;;;;;;4.72;1.52;;;-0.20;71.00;;;;;;6183154;23;20236;-73
2024/01/09 03:52:30;;;;;;;4.97;1.50;;;-0.20;70.40;;;;;;6210119;23;20031;-70
2024/01/09 03:54:57;;;;;;;5.03;1.70;;;-0.30;69.20;;;;;;6234568;22;20071;-72
2024/01/09 03:57:25;;;;;;;6.30;1.58;;;-0.40;69.10;;;;;;6233635;22;20029;-71
2024/01/09 03:59:52;;;;;;;4.90;1.63;;;-0.40;68.50;;;;;;6233573;22;20196;-71
2024/01/09 04:02:19;;;;;;;5.05;1.45;;;-0.50;70.00;;;;;;6210048;23;20256;-71
2024/01/09 04:04:46;;;;;;;5.15;1.50;;;-0.50;69.70;;;;;;6231721;22;20024;-71
2024/01/09 04:07:13;;;;;;;5.13;1.40;;;-0.50;70.30;;;;;;6234305;22;20128;-74
2024/01/09 04:09:40;;;;;;;4.32;1.50;;;-0.40;71.50;;;;;;6233658;22;20025;-71
2024/01/09 04:12:07;;;;;;;5.03;1.30;;;-0.40;70.20;;;;;;6233334;22;20445;-72
2024/01/09 04:14:36;;;;;;;4.97;1.48;;;-0.50;69.00;;;;;;6209669;22;20217;-72
2024/01/09 04:17:03;;;;;;;5.82;1.45;;;-0.50;69.30;;;;;;6233131;22;20053;-71
2024/01/09 04:19:30;;;;;;;5.90;1.50;;;-0.60;69.40;;;;;;6233470;22;20021;-70
2024/01/09 04:21:57;;;;;;;5.35;1.40;;;-0.60;70.70;;;;;;6229923;22;20048;-71
2024/01/09 04:24:24;;;;;;;5.43;1.47;;;-0.60;70.00;;;;;;6233871;22;20477;-71
2024/01/09 04:26:51;;;;;;;5.38;1.73;;;-0.50;70.00;;;;;;6232986;22;20287;-71
2024/01/09 04:29:18;;;;;;;6.18;1.80;;;-0.60;69.10;;;;;;6231860;22;20108;-71
2024/01/09 04:31:47;;;;;;;4.57;1.50;;;-0.60;69.90;;;;;;6232057;22;20048;-73
2024/01/09 04:34:14;;;;;;;5.15;1.30;;;-0.60;69.70;;;;;;6233263;22;20092;-72
2024/01/09 04:36:41;;;;;;;4.33;1.40;;;-0.60;68.60;;;;;;6233675;22;20048;-72
2024/01/09 04:39:08;;;;;;;5.97;1.70;;;-0.70;68.20;;;;;;6205606;23;20256;-71
2024/01/09 04:41:35;;;;;;;4.28;1.20;;;-0.70;68.50;;;;;;6231881;22;20021;-71
2024/01/09 04:44:02;;;;;;;4.68;1.50;;;-0.70;68.20;;;;;;6209597;22;20031;-73
2024/01/09 04:46:29;;;;;;;5.30;1.48;;;-0.90;68.60;;;;;;6209586;23;20111;-71
2024/01/09 04:48:57;;;;;;;5.90;1.43;;;-0.90;69.30;;;;;;6232050;22;20017;-71
2024/01/09 04:51:25;;;;;;;4.43;1.42;;;-0.90;68.70;;;;;;6180642;23;20307;-71
2024/01/09 04:53:52;;;;;;;5.10;1.40;;;-0.90;68.70;;;;;;6208942;23;20055;-70
2024/01/09 04:56:19;;;;;;;5.10;1.40;;;-0.90;69.30;;;;;;6229980;22;20026;-72
2024/01/09 04:58:46;;;;;;;6.13;1.50;;;-0.90;68.80;;;;;;6210697;23;20021;-71
2024/01/09 05:01:13;;;;;;;4.63;1.60;;;-0.90;68.20;;;;;;6233869;22;20080;-72
2024/01/09 05:03:45;;;;;;;4.60;1.10;;;-0.90;69.00;;;;;;6234652;22;20747;-71
2024/01/09 05:06:14;;;;;;;4.32;1.35;;;-0.90;69.40;;;;;;6234641;22;20187;-71
2024/01/09 05:08:41;;;;;;;6.18;1.48;;;-0.90;68.30;;;;;;6211450;23;20107;-70
2024/01/09 05:11:09;;;;;;;5.05;1.50;;;-0.90;70.30;;;;;;6183838;23;20025;-73
2024/01/09 05:13:36;;;;;;;4.03;1.27;;;-0.90;70.20;;;;;;6230991;22;20025;-72
2024/01/09 05:16:05;;;;;;;4.40;1.33;;;-0.90;68.60;;;;;;6234744;22;20276;-73
2024/01/09 05:18:32;;;;;;;7.85;1.80;;;-0.90;69.60;;;;;;6210885;23;20589;-71
2024/01/09 05:20:59;;;;;;;5.18;1.50;;;-0.90;69.70;;;;;;6210174;23;20025;-71
2024/01/09 05:23:28;;;;;;;5.25;1.60;;;-0.90;69.90;;;;;;6211955;23;20049;-71
2024/01/09 05:25:55;;;;;;;5.73;1.30;;;-0.90;69.80;;;;;;6234733;22;20025;-73
2024/01/09 05:28:22;;;;;;;5.30;1.48;;;-0.90;69.80;;;;;;6235393;22;20315;-72
2024/01/09 05:30:49;;;;;;;5.05;1.58;;;-0.90;71.30;;;;;;6207527;23;20091;-72
2024/01/09 05:33:16;;;;;;;4.57;1.10;;;-0.80;71.20;;;;;;6211934;23;20033;-72
2024/01/09 05:35:43;;;;;;;4.38;1.40;;;-0.80;70.50;;;;;;6234566;22;20082;-72
2024/01/09 05:38:10;;;;;;;5.73;1.50;;;-0.80;69.30;;;;;;6212112;23;20100;-71
2024/01/09 05:40:38;;;;;;;4.93;1.42;;;-0.90;67.90;;;;;;6210552;23;20272;-71
2024/01/09 05:43:05;;;;;;;4.25;1.42;;;-1.00;68.80;;;;;;6211939;23;20024;-72
2024/01/09 05:45:32;;;;;;;5.35;1.60;;;-1.00;69.10;;;;;;6235334;22;20057;-70
2024/01/09 05:47:59;;;;;;;4.93;1.45;;;-1.10;69.20;;;;;;6208360;23;20021;-71
2024/01/09 05:50:26;;;;;;;5.57;1.37;;;-1.10;69.20;;;;;;6234575;22;20154;-71
2024/01/09 05:52:53;;;;;;;5.60;2.08;;;-1.10;68.40;;;;;;6235366;22;20229;-72
2024/01/09 05:55:21;;;;;;;6.78;1.73;;;-1.10;68.70;;;;;;6211342;23;20374;-71
2024/01/09 05:57:50;;;;;;;5.40;1.50;;;-1.20;68.80;;;;;;6234615;22;20020;-71
2024/01/09 06:00:18;;;;;;;6.15;1.73;;;-1.10;68.80;;;;;;6210830;23;20076;-71
2024/01/09 06:02:45;;;;;;;5.37;1.53;;;-1.10;69.20;;;;;;6233538;22;20080;-71
2024/01/09 06:05:13;;;;;;;5.97;1.67;;;-1.10;69.80;;;;;;6208370;23;20266;-73
2024/01/09 06:07:40;;;;;;;4.65;1.38;;;-1.10;69.00;;;;;;6234366;22;20365;-70
2024/01/09 06:10:07;;;;;;;5.05;1.77;;;-1.10;69.40;;;;;;6234163;22;20734;-73
2024/01/09 06:12:34;;;;;;;4.85;1.60;;;-1.10;69.60;;;;;;6210442;23;20021;-71
2024/01/09 06:15:03;;;;;;;6.67;1.97;;;-1.10;68.60;;;;;;6233803;22;20395;-70
2024/01/09 06:17:30;;;;;;;6.28;1.75;;;-1.10;69.00;;;;;;6233955;22;20241;-71
2024/01/09 06:19:57;;;;;;;4.18;1.48;;;-1.10;69.10;;;;;;6234464;22;20037;-71
2024/01/09 06:22:24;;;;;;;5.28;1.70;;;-1.10;69.30;;;;;;6229854;22;20048;-72
2024/01/09 06:24:51;;;;;;;5.55;1.80;;;-1.10;68.80;;;;;;6234724;22;20082;-71
2024/01/09 06:27:18;;;;;;;4.57;1.47;;;-1.10;68.00;;;;;;6233774;22;20362;-70
2024/01/09 06:29:45;;;;;;;4.70;1.45;;;-1.10;68.10;;;;;;6233079;22;21329;-71
2024/01/09 06:32:14;;;;;;;7.82;1.70;;;-1.10;68.20;;;;;;6210220;23;20033;-70
2024/01/09 06:34:41;;;;;;;6.43;2.00;;;-1.10;69.80;;;;;;6211243;23;20681;-72
2024/01/09 06:37:08;;;;;;;6.07;1.67;;;-1.10;69.00;;;;;;6233911;22;20351;-71
2024/01/09 06:39:37;;;;;;;8.37;1.70;;;-1.10;68.90;;;;;;6230304;22;20104;-71
2024/01/09 06:42:05;;;;;;;5.32;1.50;;;-1.10;68.40;;;;;;6210203;23;20275;-72
2024/01/09 06:44:32;;;;;;;6.15;1.88;;;-1.10;68.60;;;;;;6233994;22;20104;-71
2024/01/09 06:46:59;;;;;;;5.00;1.70;;;-1.10;68.20;;;;;;6233437;22;20097;-70
2024/01/09 06:49:27;;;;;;;5.22;1.70;;;-1.10;68.00;;;;;;6234618;22;20032;-71
2024/01/09 06:51:54;;;;;;;5.47;1.53;;;-1.10;68.50;;;;;;6234290;22;20129;-71
2024/01/09 06:54:21;;;;;;;5.13;1.60;;;-1.10;68.10;;;;;;6235298;22;20654;-71
2024/01/09 06:56:48;;;;;;;3.78;1.30;;;-1.10;68.20;;;;;;6231004;22;20023;-70
2024/01/09 06:59:15;;;;;;;5.18;1.67;;;-1.10;69.10;;;;;;6211231;23;20096;-71
2024/01/09 07:01:43;;;;;;;5.03;1.42;;;-1.10;68.20;;;;;;6233394;22;20104;-70
2024/01/09 07:04:10;;;;;;;5.07;1.60;;;-1.20;67.40;;;;;;6236310;22;20025;-70
2024/01/09 07:06:38;;;;;;;6.35;1.80;;;-1.30;67.70;;;;;;6236875;22;20304;-71
2024/01/09 07:09:05;;;;;;;4.65;1.45;;;-1.30;68.00;;;;;;6234347;22;20052;-71
2024/01/09 07:11:32;;;;;;;5.32;1.75;;;-1.20;68.70;;;;;;6233542;22;20025;-73
2024/01/09 07:14:00;;;;;;;5.32;1.80;;;-1.20;68.70;;;;;;6208140;23;20033;-71
2024/01/09 07:16:27;;;;;;;4.93;1.70;;;-1.10;68.30;;;;;;6234851;22;20493;-72
2024/01/09 07:18:54;;;;;;;5.70;2.00;;;-1.10;68.70;;;;;;6234595;22;20641;-73
2024/01/09 07:21:21;;;;;;;4.72;1.80;;;-1.10;68.30;;;;;;6233310;22;20044;-73
2024/01/09 07:23:50;;;;;;;4.90;1.83;;;-1.10;67.80;;;;;;6210986;23;20025;-73
2024/01/09 07:26:17;;;;;;;5.95;1.75;;;-1.10;68.20;;;;;;6234551;22;20084;-73
2024/01/09 07:28:43;;;;;;;5.57;1.80;;;-1.20;68.00;;;;;;6234857;22;20055;-72
2024/01/09 07:31:10;;;;;;;6.60;1.80;;;-1.10;68.60;;;;;;6230246;22;20268;-72
2024/01/09 07:33:38;;;;;;;4.82;1.55;;;-1.10;68.20;;;;;;6234596;22;20120;-72
2024/01/09 07:36:06;;;;;;;6.30;1.88;;;-1.10;68.30;;;;;;6210664;23;20469;-73
2024/01/09 07:38:33;;;;;;;7.50;2.00;;;-1.10;67.60;;;;;;6233900;22;20025;-72
2024/01/09 07:41:02;;;;;;;5.50;1.47;;;-1.30;67.10;;;;;;6233092;22;20060;-71
2024/01/09 07:43:29;;;;;;;5.15;1.38;;;-1.30;67.00;;;;;;6233340;22;20221;-71
2024/01/09 07:45:56;;;;;;;5.60;1.70;;;-1.30;67.40;;;;;;6233518;22;20840;-72
2024/01/09 07:48:23;;;;;;;6.90;2.03;;;-1.30;67.70;;;;;;6229013;22;20120;-71
2024/01/09 07:50:50;;;;;;;5.30;1.60;;;-1.30;66.90;;;;;;6229601;22;20021;-72
2024/01/09 07:53:17;;;;;;;5.03;1.60;;;-1.40;66.80;;;;;;6206323;23;20083;-72
2024/01/09 07:55:44;;;;;;;5.28;1.65;;;-1.50;67.20;;;;;;6231107;22;20241;-72
2024/01/09 07:58:13;;;;;;;4.80;1.58;;;-1.50;66.70;;;;;;6229724;22;20025;-72
2024/01/09 08:00:40;;;;;;;5.15;1.40;;;-1.50;67.00;;;;;;6232227;22;20044;-73
2024/01/09 08:03:07;;;;;;;4.30;1.40;;;-1.60;66.50;;;;;;6206109;23;20021;-71
2024/01/09 08:05:34;;;;;;;6.23;1.70;;;-1.60;66.80;;;;;;6229816;22;20045;-72
2024/01/09 08:08:01;;;;;;;6.80;2.20;;;-1.60;67.40;;;;;;6229590;22;20263;-72
2024/01/09 08:10:28;;;;;;;6.25;1.70;;;-1.60;66.90;;;;;;6228954;22;20025;-73
2024/01/09 08:12:55;;;;;;;5.55;1.83;;;-1.70;66.80;;;;;;6229161;22;20061;-72
2024/01/09 08:15:23;;;;;;;5.68;1.83;;;-1.70;66.90;;;;;;6205079;23;20106;-73
2024/01/09 08:17:50;;;;;;;5.70;1.70;;;-1.70;66.80;;;;;;6229463;22;20617;-72
2024/01/09 08:20:18;;;;;;;6.15;1.77;;;-1.80;66.90;;;;;;6228933;22;20241;-72
2024/01/09 08:22:45;;;;;;;7.13;1.85;;;-1.80;67.70;;;;;;6204101;23;20781;-71
2024/01/09 08:25:13;;;;;;;5.90;1.65;;;-1.70;67.40;;;;;;6233064;22;20017;-71
2024/01/09 08:27:40;;;;;;;9.85;1.67;;;-1.70;67.10;;;;;;6209993;23;20025;-71
2024/01/09 08:30:10;;;;;;;7.50;1.77;;;-1.80;66.80;;;;;;6209549;23;20028;-73
2024/01/09 08:32:40;;;;;;;5.95;1.95;;;-1.80;66.90;;;;;;6206530;23;20221;-72
2024/01/09 08:35:08;;;;;;;5.68;1.88;;;-1.80;66.60;;;;;;6182976;23;20052;-72
2024/01/09 08:37:35;;;;;;;6.05;1.92;;;-1.90;66.70;;;;;;6234456;22;20056;-73
2024/01/09 08:40:02;;;;;;;6.68;1.70;;;-1.90;66.80;;;;;;6181642;23;20056;-72
2024/01/09 08:42:29;;;;;;;5.83;1.70;;;-1.90;66.50;;;;;;6183918;23;20100;-70
2024/01/09 08:44:56;;;;;;;7.18;2.10;;;-2.10;66.20;;;;;;6211120;23;20244;-71
2024/01/09 08:47:23;;;;;;;6.32;1.80;;;-2.10;66.50;;;;;;6210313;23;20782;-72
2024/01/09 08:49:53;;;;;;;5.07;2.08;;;-2.10;66.50;;;;;;6233670;22;20045;-72
2024/01/09 08:52:24;;;;;;;6.28;1.95;;;-2.10;66.90;;;;;;6233922;22;20029;-71
2024/01/09 08:54:52;;;;;;;6.67;1.70;;;-2.10;67.00;;;;;;6209973;22;20028;-73
2024/01/09 08:57:20;;;;;;;5.30;1.95;;;-2.10;67.70;;;;;;6180975;23;20251;-72
2024/01/09 08:59:48;;;;;;;7.13;2.05;;;-2.10;67.00;;;;;;6184799;23;20049;-72
2024/01/09 09:02:15;;;;;;;6.95;1.75;;;-2.10;67.30;;;;;;6234192;22;20053;-72
2024/01/09 09:04:42;;;;;;;6.78;1.80;;;-2.10;67.40;;;;;;6209070;23;20474;-74
2024/01/09 09:07:11;;;;;;;5.60;1.80;;;-2.10;67.30;;;;;;6234810;22;20108;-74
2024/01/09 09:09:38;;;;;;;5.15;1.60;;;-2.10;66.70;;;;;;6234906;22;20247;-72
2024/01/09 09:12:05;;;;;;;6.63;1.60;;;-2.20;66.60;;;;;;6234063;22;20025;-72
2024/01/09 09:14:33;;;;;;;6.28;1.67;;;-2.30;67.00;;;;;;6207487;22;20370;-71
2024/01/09 09:16:59;;;;;;;5.28;1.60;;;-2.30;66.80;;;;;;6211532;23;20100;-72
2024/01/09 09:19:27;;;;;;;5.87;2.03;;;-2.30;66.50;;;;;;6234990;22;20028;-73
2024/01/09 09:21:55;;;;;;;5.90;1.95;;;-2.40;66.30;;;;;;6234459;22;20256;-73
2024/01/09 09:24:24;;;;;;;5.18;1.70;;;-2.40;67.30;;;;;;6210430;23;20031;-72
2024/01/09 09:26:51;;;;;;;5.07;1.40;;;-2.40;68.20;;;;;;6183567;23;20029;-75
2024/01/09 09:29:18;;;;;;;5.82;1.80;;;-2.30;68.30;;;;;;6233379;22;20028;-72
2024/01/09 09:31:45;;;;;;;6.63;1.50;;;-2.30;67.90;;;;;;6230951;22;20053;-73
2024/01/09 09:34:12;;;;;;;4.95;1.10;;;-2.30;67.20;;;;;;6209635;23;20233;-74
2024/01/09 09:36:39;;;;;;;4.95;1.40;;;-2.30;66.60;;;;;;6211749;23;20045;-71
2024/01/09 09:39:06;;;;;;;5.38;1.55;;;-2.30;66.80;;;;;;6233348;22;20104;-70
2024/01/09 09:41:38;;;;;;;4.45;1.33;;;-2.30;67.20;;;;;;6233750;22;20677;-69
2024/01/09 09:44:08;;;;;;;5.53;1.60;;;-2.30;67.10;;;;;;6211345;23;20025;-71
2024/01/09 09:46:37;;;;;;;4.85;1.38;;;-2.30;67.20;;;;;;6211741;23;20213;-71
2024/01/09 09:49:04;;;;;;;6.00;1.55;;;-2.20;67.50;;;;;;6208488;23;20028;-71
2024/01/09 09:51:31;;;;;;;6.13;1.73;;;-2.20;67.70;;;;;;6234195;22;20088;-70
2024/01/09 09:54:01;;;;;;;6.30;1.30;;;-2.10;67.50;;;;;;6232637;22;20021;-70
2024/01/09 09:56:28;;;;;;;6.07;1.90;;;-2.10;67.00;;;;;;6208510;23;20076;-69
2024/01/09 09:58:57;;;;;;;4.55;1.40;;;-2.10;66.70;;;;;;6228645;22;20307;-71
2024/01/09 10:01:25;;;;;;;5.25;1.55;;;-2.10;66.40;;;;;;6207949;22;20059;-70
2024/01/09 10:03:57;;;;;;;6.75;1.35;;;-2.10;66.60;;;;;;6232430;22;20021;-70
2024/01/09 10:06:25;;;;;;;6.22;1.50;;;-2.10;66.50;;;;;;6205830;23;20458;-69
2024/01/09 10:08:55;;;;;;;4.83;1.77;;;-2.10;66.90;;;;;;6232508;22;20031;-69
2024/01/09 10:11:22;;;;;;;4.43;1.23;;;-2.00;66.60;;;;;;6233097;22;20228;-70
2024/01/09 10:13:50;;;;;;;5.00;1.38;;;-1.90;67.00;;;;;;6232191;22;20052;-70
2024/01/09 10:16:19;;;;;;;9.48;2.08;;;-1.90;66.20;;;;;;6231044;22;20563;-70
2024/01/09 10:18:46;;;;;;;6.70;1.88;;;-1.80;66.40;;;;;;6233749;22;20049;-71
2024/01/09 10:21:13;;;;;;;5.43;1.27;;;-1.80;65.60;;;;;;6208522;23;20060;-69
2024/01/09 10:23:40;;;;;;;6.40;1.55;;;-1.80;65.90;;;;;;6207688;23;20718;-72
2024/01/09 10:26:11;;;;;;;5.22;1.50;;;-1.80;67.50;;;;;;6204456;23;20091;-69
2024/01/09 10:28:38;;;;;;;5.82;1.75;;;-1.70;66.90;;;;;;6207737;23;20955;-70
2024/01/09 10:31:08;;;;;;;4.90;1.45;;;-1.60;66.20;;;;;;6230060;22;20025;-71
2024/01/09 10:33:39;;;;;;;5.03;1.30;;;-1.60;65.80;;;;;;6230297;22;20063;-69
2024/01/09 10:36:06;;;;;;;6.57;1.15;;;-1.60;66.10;;;;;;6208920;23;20213;-69
2024/01/09 10:38:34;;;;;;;5.13;1.40;;;-1.50;66.60;;;;;;6210315;23;20052;-68
2024/01/09 10:41:15;;;;;;;4.53;1.17;;;-1.50;65.30;;;;;;6210726;22;20066;-69
2024/01/09 10:43:43;;;;;;;7.85;1.42;;;-1.50;65.80;;;;;;6231839;22;20106;-69
2024/01/09 10:46:10;;;;;;;4.10;1.33;;;-1.50;65.60;;;;;;6233542;22;20024;-69
2024/01/09 10:48:41;;;;;;;5.20;1.63;;;-1.40;65.20;;;;;;6184388;23;20299;-70
2024/01/09 10:51:11;;;;;;;4.95;1.48;;;-1.30;65.20;;;;;;6232593;22;20029;-71
2024/01/09 10:53:40;;;;;;;6.57;1.13;;;-1.30;65.60;;;;;;6210731;23;20923;-72
2024/01/09 10:56:10;;;;;;;6.30;1.98;;;-1.20;65.80;;;;;;6207826;23;20025;-70
2024/01/09 10:58:37;;;;;;;4.90;1.60;;;-1.10;65.70;;;;;;6209602;23;20106;-72
2024/01/09 11:01:05;;;;;;;5.32;1.15;;;-1.10;65.80;;;;;;6229958;22;20245;-70
2024/01/09 11:03:32;;;;;;;5.78;1.38;;;-1.10;65.40;;;;;;6234129;22;20021;-70
2024/01/09 11:06:03;;;;;;;4.40;1.33;;;-1.00;65.80;;;;;;6207669;23;20025;-72
2024/01/09 11:08:33;;;;;;;5.07;1.33;;;-0.90;65.50;;;;;;6232460;22;20028;-70
2024/01/09 11:11:01;;;;;;;5.07;1.43;;;-0.80;65.60;;;;;;6232570;22;20032;-69
2024/01/09 11:13:29;;;;;;;5.03;1.40;;;-0.70;64.80;;;;;;6208638;23;20727;-70
2024/01/09 11:15:57;;;;;;;4.78;1.58;;;-0.70;64.40;;;;;;6180197;23;20140;-71
2024/01/09 11:18:27;;;;;;;5.72;1.73;;;-0.70;64.80;;;;;;6204710;23;20032;-70
2024/01/09 11:21:05;;;;;;;5.78;1.83;;;-0.60;65.40;;;;;;6179214;23;20087;-71
2024/01/09 11:23:54;;;;;;;4.90;1.60;;;-0.50;65.50;;;;;;6204831;23;20728;-70
2024/01/09 11:26:22;;;;;;;6.03;1.80;;;-0.40;65.50;;;;;;6229596;22;20220;-71
2024/01/09 11:28:49;;;;;;;5.97;1.73;;;-0.30;65.50;;;;;;6232104;22;20087;-71
2024/01/09 11:31:20;;;;;;;5.97;1.70;;;-0.20;65.00;;;;;;6232258;22;20477;-69
2024/01/09 11:33:48;;;;;;;4.18;1.48;;;-0.10;64.70;;;;;;6182612;23;20025;-72
2024/01/09 11:36:22;;;;;;;6.80;1.67;;;-0.10;64.80;;;;;;6205900;23;21078;-69
2024/01/09 11:38:51;;;;;;;5.15;1.70;;;0.00;65.90;;;;;;6209395;23;20217;-72
2024/01/09 11:41:18;;;;;;;4.82;1.73;;;0.00;65.70;;;;;;6231655;22;20405;-72
2024/01/09 11:43:58;;;;;;;6.15;1.70;;;0.10;65.30;;;;;;6229889;22;20100;-71
2024/01/09 11:46:26;;;;;;;5.05;1.48;;;0.20;64.60;;;;;;6206669;23;20045;-72
2024/01/09 11:48:53;;;;;;;5.20;1.50;;;0.30;63.70;;;;;;6230582;22;20489;-71
2024/01/09 11:51:22;;;;;;;6.85;2.10;;;0.30;63.40;;;;;;6229865;22;20954;-72
2024/01/09 11:53:50;;;;;;;5.57;1.90;;;0.40;63.90;;;;;;6227490;22;20025;-71
2024/01/09 11:56:17;;;;;;;5.10;1.60;;;0.50;63.70;;;;;;6230786;22;20481;-71
2024/01/09 11:58:45;;;;;;;5.35;1.63;;;0.50;63.60;;;;;;6231019;22;20021;-73
2024/01/09 12:01:13;;;;;;;4.90;1.30;;;0.60;63.70;;;;;;6180236;23;20084;-72
2024/01/09 12:03:40;;;;;;;4.85;1.42;;;0.60;62.80;;;;;;6205950;23;20351;-70
2024/01/09 12:06:07;;;;;;;5.30;1.45;;;0.70;64.10;;;;;;6229055;22;20060;-70
2024/01/09 12:08:36;;;;;;;4.47;1.52;;;0.80;61.70;;;;;;6229455;22;20045;-71
2024/01/09 12:11:03;;;;;;;5.43;1.58;;;0.80;62.60;;;;;;6224977;22;20025;-73
2024/01/09 12:13:30;;;;;;;5.80;1.70;;;0.80;62.80;;;;;;6205415;23;20021;-70
2024/01/09 12:15:58;;;;;;;6.35;1.85;;;0.90;62.50;;;;;;6229320;22;20699;-71
2024/01/09 12:18:25;;;;;;;4.88;1.48;;;1.00;62.60;;;;;;6207741;22;20088;-70
2024/01/09 12:20:52;;;;;;;5.30;2.00;;;1.00;62.30;;;;;;6231335;22;20116;-71
2024/01/09 12:23:19;;;;;;;5.32;1.65;;;1.00;61.80;;;;;;6229308;22;20055;-72
2024/01/09 12:25:49;;;;;;;5.30;1.70;;;1.10;61.80;;;;;;6179986;23;20032;-72
2024/01/09 12:28:16;;;;;;;5.28;1.85;;;1.10;61.20;;;;;;6205516;23;20249;-72
2024/01/09 12:30:43;;;;;;;5.25;2.05;;;1.20;61.50;;;;;;6200431;23;20736;-71
2024/01/09 12:33:11;;;;;;;5.07;1.50;;;1.20;61.40;;;;;;6202387;23;20021;-71
2024/01/09 12:35:42;;;;;;;4.45;1.63;;;1.40;60.90;;;;;;6226727;22;20074;-72
2024/01/09 12:38:10;;;;;;;8.27;1.77;;;1.40;61.40;;;;;;6226163;22;20028;-75
2024/01/09 12:40:37;;;;;;;5.95;1.70;;;1.50;60.60;;;;;;6225859;22;20260;-71
2024/01/09 12:43:10;;;;;;;5.82;1.40;;;1.60;60.70;;;;;;6203851;23;20075;-71
2024/01/09 12:45:39;;;;;;;5.70;1.88;;;1.60;59.50;;;;;;6233578;22;20025;-70
2024/01/09 12:48:07;;;;;;;4.80;1.55;;;1.70;60.10;;;;;;6182821;23;20025;-71
2024/01/09 12:50:34;;;;;;;5.57;1.40;;;1.70;60.90;;;;;;6213457;23;20079;-70
2024/01/09 12:53:02;;;;;;;5.68;1.25;;;1.80;59.50;;;;;;6210387;23;20717;-71